Aeroporto :
LOGIN :

Iscrizione | Disclaimer

   EN    FR    IT 

 










Sommario :    VFR   VFR Marginale   IFR   IFR Intensivo   IFR Molto Intensivo
Visibilità : 
Base nubi : 
>= 8 km
>= 3000ft
5 / 8 km
1000 / 3000 ft
1500m / 5 km
500 / 1000 ft
800 / 1500m
200 / 500 ft
< 800m
< 200 ft
Simboli :   Temporali  Nebbia  Neve Forte  Precipitazioni Forti  Vento > 20 kt
SIGMETs :   Varie  Temporali  Ghiacco  Turbolenza  Onda orograficha  Ceneri Vulcaniche






- Altitudine del aeroporto : 375 ft
- Codice IATA : MST


EHBK - Maastricht Aachen

ULTIMO METAR :
  • 182055Z AUTO 26008KT 220V300 9999 BKN047 12/07 Q1016

METARs OBSOLETI :
  • 182025Z AUTO VRB02KT 9999 NSC 11/05 Q1015 NOSIG
  • 181955Z AUTO 31003KT 9999 NSC 12/05 Q1015 NOSIG
  • 181925Z AUTO 34003KT 9999 NCD 12/06 Q1014 NOSIG
  • 181855Z AUTO 32006KT 9999 NCD 14/05 Q1014 NOSIG
  • 181825Z AUTO 32007KT 290V360 9999 NCD 14/04 Q1014 NOSIG

TAF AMD TAF EHBK
Valido dal 18 a 20 ore il 20 a 00 ore UTC


182053Z 1820/1924 30008KT 9999 BKN040
PROB40
TEMPO 1820/1901 7000 SHRA FEW020CB BKN030
BECMG 1902/1904 6000 BKN012
PROB30 1903/1906 4000 BR BKN008
BECMG 1905/1907 22010KT 9999 SCT018
TEMPO 1910/1918 6000 SHRA FEW018CB
PROB40
TEMPO 1911/1918 27015G25KT 2500 TSRAGS SCT015CB BKN025
BECMG 1912/1915 30005KT
BECMG 1921/1924 4000 BR



MetMap, La meteo Aeronautica in un colpo d'occhio ! - Copyright ORBIFLY Dicembre 2007 - Disclaimer

ORBIFLY MET'MAP TEAM :

Programmazione e sviluppo : Alexandra Zaïnal
Concezione : Baudouin d'Aumeries
Aiuto per la programmazione : Marc-Olivier Méhu
Supporto tecnico e logistico : Manuel Goepfert
Aiuto per la traduzione : Arnaldo La Scala

Contatto : metmap@orbifly.com




FONTI E CREDITI :

   NOAA